Time;durP1;ratioP1;P1;durP2;ratioP2;P2;SDS_P1;SDS_P2;PMS_P1;PMS_P2;Temp;Humidity;BMP_temperature;BMP_pressure;BME280_temperature;BME280_humidity;BME280_pressure;Samples;Min_cycle;Max_cycle;Signal;HPM_P1;HPM_P2
2023/01/26 00:01:45;;;;;;;21.00;12.47;;;8.50;56.20;;;;;;5027260;28;20196;-60
2023/01/26 00:04:11;;;;;;;19.70;14.00;;;8.60;56.30;;;;;;5026861;28;20204;-60
2023/01/26 00:06:37;;;;;;;21.60;13.20;;;8.60;56.20;;;;;;5034102;28;20215;-61
2023/01/26 00:09:03;;;;;;;19.57;13.73;;;8.60;56.20;;;;;;5029513;28;20443;-61
2023/01/26 00:11:29;;;;;;;18.00;13.37;;;8.60;56.00;;;;;;5029115;28;20533;-60
2023/01/26 00:13:59;;;;;;;20.73;13.10;;;8.60;56.00;;;;;;5029834;28;20447;-61
2023/01/26 00:16:26;;;;;;;26.17;17.17;;;8.60;56.10;;;;;;5026093;28;20486;-61
2023/01/26 00:18:52;;;;;;;28.13;17.10;;;8.60;56.20;;;;;;5037200;28;20969;-59
2023/01/26 00:21:20;;;;;;;32.70;17.97;;;8.50;56.40;;;;;;5032643;28;20432;-59
2023/01/26 00:23:47;;;;;;;31.63;17.93;;;8.50;56.60;;;;;;5030356;28;20444;-60
2023/01/26 00:26:17;;;;;;;27.77;17.40;;;8.30;57.30;;;;;;5030176;28;20573;-60
2023/01/26 00:28:43;;;;;;;25.60;15.40;;;8.20;57.50;;;;;;5031712;28;20452;-59
2023/01/26 00:31:15;;;;;;;26.70;15.93;;;8.00;57.70;;;;;;5031261;28;20514;-60
2023/01/26 00:33:41;;;;;;;32.30;17.50;;;8.00;58.20;;;;;;5027458;28;20447;-60
2023/01/26 00:36:07;;;;;;;24.80;16.40;;;8.00;58.00;;;;;;5033530;28;20487;-59
2023/01/26 00:38:33;;;;;;;29.30;17.27;;;8.10;58.10;;;;;;5031708;28;20542;-60
2023/01/26 00:40:59;;;;;;;28.50;16.83;;;8.00;58.00;;;;;;5029699;28;20443;-60
2023/01/26 00:43:24;;;;;;;28.73;16.80;;;8.00;58.10;;;;;;5020728;28;20534;-60
2023/01/26 00:45:50;;;;;;;29.33;17.33;;;8.10;58.10;;;;;;5029631;28;20543;-59
2023/01/26 00:48:16;;;;;;;30.17;16.70;;;8.10;58.00;;;;;;5029834;28;20498;-59
2023/01/26 00:50:42;;;;;;;32.20;17.70;;;8.10;57.90;;;;;;5030236;28;20788;-59
2023/01/26 00:53:08;;;;;;;26.53;15.77;;;8.10;58.10;;;;;;5030081;28;20201;-60
2023/01/26 00:55:33;;;;;;;28.13;15.83;;;8.20;58.00;;;;;;5036007;28;20628;-59
2023/01/26 00:58:05;;;;;;;27.97;16.20;;;8.10;57.90;;;;;;5032094;28;20444;-59
2023/01/26 01:00:32;;;;;;;25.30;15.37;;;8.10;58.10;;;;;;5026722;28;20259;-59
2023/01/26 01:02:58;;;;;;;27.40;16.70;;;8.10;58.00;;;;;;5030285;28;20536;-59
2023/01/26 01:05:26;;;;;;;29.10;17.70;;;8.10;57.90;;;;;;5027419;28;20887;-60
2023/01/26 01:07:52;;;;;;;26.07;16.37;;;8.20;58.00;;;;;;5026399;28;20738;-59
2023/01/26 01:10:17;;;;;;;28.33;16.43;;;8.20;57.90;;;;;;5030033;28;20438;-60
2023/01/26 01:12:43;;;;;;;32.07;17.37;;;8.30;57.90;;;;;;5030278;28;20204;-60
2023/01/26 01:15:12;;;;;;;35.20;18.73;;;8.30;57.90;;;;;;5029016;28;20476;-59
2023/01/26 01:17:37;;;;;;;25.53;16.70;;;8.30;57.70;;;;;;5029716;28;20203;-59
2023/01/26 01:20:06;;;;;;;30.97;17.90;;;8.30;57.70;;;;;;5027201;28;20474;-59
2023/01/26 01:22:32;;;;;;;28.90;17.00;;;8.30;57.50;;;;;;5027359;28;20192;-59
2023/01/26 01:24:58;;;;;;;24.30;14.87;;;8.40;57.50;;;;;;5029972;28;20447;-61
2023/01/26 01:27:23;;;;;;;30.33;16.67;;;8.30;57.60;;;;;;5030633;28;20456;-59
2023/01/26 01:29:50;;;;;;;24.50;15.27;;;8.30;57.70;;;;;;5026741;28;20224;-59
2023/01/26 01:32:15;;;;;;;29.10;15.10;;;8.30;57.70;;;;;;5028221;28;20221;-59
2023/01/26 01:34:41;;;;;;;28.57;18.17;;;8.30;57.50;;;;;;5024634;28;20458;-59
2023/01/26 01:37:06;;;;;;;26.40;16.07;;;8.30;57.50;;;;;;5028579;28;20706;-59
2023/01/26 01:39:32;;;;;;;25.27;17.23;;;8.40;57.60;;;;;;5027976;28;20259;-60
2023/01/26 01:41:58;;;;;;;24.60;16.63;;;8.40;57.40;;;;;;5029517;28;20204;-59
2023/01/26 01:44:25;;;;;;;25.87;16.03;;;8.40;57.50;;;;;;5027996;28;20212;-59
2023/01/26 01:47:20;;;;;;;30.77;16.90;;;8.40;57.30;;;;;;5030412;28;20185;-59
2023/01/26 01:49:49;;;;;;;28.97;17.10;;;8.40;57.40;;;;;;5030544;28;20814;-59
2023/01/26 01:52:25;;;;;;;25.70;16.10;;;8.40;57.40;;;;;;5024750;28;20448;-60
2023/01/26 01:54:58;;;;;;;25.37;15.90;;;8.50;57.50;;;;;;5027627;28;20493;-59
2023/01/26 01:57:29;;;;;;;25.30;14.83;;;8.50;57.30;;;;;;5032230;28;20978;-59
2023/01/26 02:00:18;;;;;;;23.23;13.77;;;8.50;57.20;;;;;;5030125;28;20843;-59
2023/01/26 02:03:09;;;;;;;23.37;14.83;;;8.40;57.00;;;;;;5028464;28;20444;-59
2023/01/26 02:05:37;;;;;;;27.93;16.63;;;8.40;56.90;;;;;;5030863;28;20505;-60
2023/01/26 02:08:04;;;;;;;20.67;14.23;;;8.40;56.90;;;;;;5029579;28;20965;-59
2023/01/26 02:10:31;;;;;;;24.87;14.30;;;8.30;57.10;;;;;;5029813;28;20444;-59
2023/01/26 02:12:59;;;;;;;21.43;13.70;;;8.30;57.30;;;;;;5031773;28;20461;-59
2023/01/26 02:15:25;;;;;;;22.33;12.90;;;8.30;57.30;;;;;;5032203;28;20959;-59
2023/01/26 02:17:53;;;;;;;21.77;13.20;;;8.30;57.30;;;;;;5031419;28;20531;-60
2023/01/26 02:20:27;;;;;;;24.70;14.63;;;8.30;57.40;;;;;;5032816;28;20447;-59
2023/01/26 02:23:11;;;;;;;17.77;11.60;;;8.20;57.50;;;;;;5032809;28;20444;-59
2023/01/26 02:25:53;;;;;;;21.10;13.10;;;8.20;57.60;;;;;;5032745;28;20614;-60
2023/01/26 02:28:28;;;;;;;20.40;12.70;;;8.20;57.70;;;;;;5033442;28;20444;-60
2023/01/26 02:30:55;;;;;;;20.53;12.70;;;8.20;57.80;;;;;;5037713;28;20475;-59
2023/01/26 02:33:23;;;;;;;20.20;12.90;;;8.20;57.80;;;;;;5033155;28;20859;-59
2023/01/26 02:35:49;;;;;;;22.03;13.07;;;8.30;57.90;;;;;;5043197;28;20750;-59
2023/01/26 02:38:17;;;;;;;21.67;12.60;;;8.20;57.90;;;;;;5027435;28;20444;-59
2023/01/26 02:40:59;;;;;;;23.40;13.67;;;8.20;57.90;;;;;;5032823;28;20448;-59
2023/01/26 02:43:26;;;;;;;22.30;12.30;;;8.20;57.90;;;;;;5033894;28;20485;-59
2023/01/26 02:45:52;;;;;;;23.97;12.87;;;8.20;57.80;;;;;;5032892;28;20428;-59
2023/01/26 02:51:03;;;;;;;19.00;12.37;;;8.20;58.00;;;;;;5030581;28;20196;-59
2023/01/26 02:53:29;;;;;;;19.00;12.10;;;8.20;58.00;;;;;;5032017;28;20428;-60
2023/01/26 02:55:55;;;;;;;22.10;13.63;;;8.10;58.10;;;;;;5030748;28;20487;-59
2023/01/26 02:58:20;;;;;;;19.00;12.20;;;8.10;58.10;;;;;;5030348;28;20247;-59
2023/01/26 03:00:46;;;;;;;23.90;13.43;;;8.20;58.10;;;;;;5030979;28;20225;-59
2023/01/26 03:03:20;;;;;;;20.03;12.50;;;8.10;58.00;;;;;;5028950;28;20681;-59
2023/01/26 03:05:46;;;;;;;20.60;12.57;;;8.10;57.90;;;;;;5026594;28;20254;-59
2023/01/26 03:08:12;;;;;;;17.83;11.53;;;8.10;58.20;;;;;;5031238;28;20439;-59
2023/01/26 03:10:39;;;;;;;19.40;12.90;;;8.10;58.40;;;;;;5032318;28;20255;-59
2023/01/26 03:13:05;;;;;;;20.13;11.53;;;8.10;58.40;;;;;;5033362;28;20194;-59
2023/01/26 03:15:42;;;;;;;19.60;11.30;;;8.10;58.40;;;;;;5026405;28;20490;-60
2023/01/26 03:29:22;;;;;;;16.47;10.37;;;7.70;58.90;;;;;;5031537;28;20451;-59
2023/01/26 03:31:48;;;;;;;16.33;10.87;;;7.70;59.10;;;;;;5031709;28;20567;-59
2023/01/26 03:34:14;;;;;;;18.07;10.40;;;7.70;59.20;;;;;;5037606;28;20443;-59
2023/01/26 03:36:40;;;;;;;20.50;10.67;;;7.70;59.00;;;;;;5039119;28;20494;-59
2023/01/26 03:39:05;;;;;;;19.53;10.90;;;7.70;58.70;;;;;;5031809;28;20189;-59
2023/01/26 03:57:57;;;;;;;17.70;10.37;;;7.70;58.70;;;;;;5031469;28;20471;-59
2023/01/26 04:00:23;;;;;;;19.93;11.63;;;7.70;58.70;;;;;;5030670;28;20939;-59
2023/01/26 04:08:23;;;;;;;19.83;10.97;;;7.80;58.70;;;;;;5018000;28;20502;-59
2023/01/26 04:10:55;;;;;;;15.27;9.10;;;7.80;58.80;;;;;;5028349;28;20456;-60
2023/01/26 04:21:36;;;;;;;16.23;8.97;;;7.70;58.40;;;;;;5030432;28;20537;-59
2023/01/26 04:24:12;;;;;;;14.13;9.90;;;7.70;58.80;;;;;;5030559;28;20527;-60
2023/01/26 04:26:38;;;;;;;16.47;10.10;;;7.60;58.90;;;;;;5024358;28;20536;-59
2023/01/26 04:29:07;;;;;;;15.40;10.50;;;7.60;59.10;;;;;;5033617;28;20575;-59
2023/01/26 04:31:33;;;;;;;18.90;11.57;;;7.70;59.10;;;;;;5031088;28;20483;-59
2023/01/26 04:33:59;;;;;;;15.50;10.30;;;7.70;59.10;;;;;;5032129;28;20412;-59
2023/01/26 04:36:25;;;;;;;16.50;11.10;;;7.70;59.20;;;;;;5035726;28;20478;-59
2023/01/26 04:38:51;;;;;;;16.27;10.57;;;7.70;59.00;;;;;;5033248;28;20455;-60
2023/01/26 04:41:17;;;;;;;16.80;10.20;;;7.60;58.70;;;;;;5031251;28;20276;-59
2023/01/26 04:43:42;;;;;;;17.10;10.30;;;7.60;59.00;;;;;;5032437;28;20197;-59
2023/01/26 04:46:08;;;;;;;15.40;10.43;;;7.60;59.10;;;;;;5029097;28;20436;-59
2023/01/26 04:48:34;;;;;;;15.20;10.90;;;7.60;59.00;;;;;;5030107;28;20653;-59
2023/01/26 04:51:06;;;;;;;16.13;10.30;;;7.60;58.70;;;;;;5030771;28;20447;-59
2023/01/26 04:53:32;;;;;;;15.10;9.63;;;7.50;58.80;;;;;;5030924;28;20447;-59
2023/01/26 04:55:58;;;;;;;15.63;9.63;;;7.50;58.70;;;;;;5024001;28;20537;-59
2023/01/26 04:58:23;;;;;;;16.03;10.60;;;7.50;59.10;;;;;;5028240;28;20841;-59
2023/01/26 05:00:57;;;;;;;17.60;10.40;;;7.50;59.00;;;;;;5026044;28;20189;-59
2023/01/26 05:03:24;;;;;;;15.70;9.33;;;7.50;58.80;;;;;;5028932;28;20193;-59
2023/01/26 05:05:51;;;;;;;15.97;9.53;;;7.50;58.90;;;;;;5030164;28;20456;-59
2023/01/26 05:08:18;;;;;;;16.07;10.47;;;7.50;59.10;;;;;;5029687;28;20811;-59
2023/01/26 05:10:44;;;;;;;15.83;9.40;;;7.50;59.10;;;;;;5028904;28;20455;-59
2023/01/26 05:13:11;;;;;;;17.90;9.73;;;7.40;58.80;;;;;;5027682;28;20456;-59
2023/01/26 05:15:36;;;;;;;15.27;10.50;;;7.30;58.90;;;;;;5029505;28;20467;-59
2023/01/26 05:18:02;;;;;;;17.67;10.40;;;7.30;59.30;;;;;;5030107;28;20465;-59
2023/01/26 05:20:28;;;;;;;18.70;10.50;;;7.30;59.30;;;;;;5027107;28;20198;-59
2023/01/26 05:22:54;;;;;;;17.90;11.00;;;7.40;59.40;;;;;;5030102;28;20197;-59
2023/01/26 05:25:20;;;;;;;15.40;11.13;;;7.40;59.30;;;;;;5029235;28;20205;-59
2023/01/26 05:27:46;;;;;;;17.00;10.17;;;7.30;59.10;;;;;;5028955;28;20451;-59
2023/01/26 05:30:13;;;;;;;16.13;10.57;;;7.20;59.70;;;;;;5028368;28;20452;-59
2023/01/26 05:32:39;;;;;;;16.27;9.73;;;7.10;59.60;;;;;;5031660;28;20480;-59
2023/01/26 05:35:06;;;;;;;16.00;10.77;;;7.10;59.60;;;;;;5032384;28;20525;-60
2023/01/26 05:37:32;;;;;;;16.97;9.67;;;7.20;59.40;;;;;;5035002;28;20197;-59
2023/01/26 05:39:58;;;;;;;22.13;10.63;;;7.10;59.40;;;;;;5030913;28;20431;-59
2023/01/26 05:42:24;;;;;;;19.57;11.43;;;7.10;59.30;;;;;;5032699;28;20436;-59
2023/01/26 05:44:49;;;;;;;21.57;12.07;;;7.10;59.30;;;;;;5030067;28;20197;-59
2023/01/26 05:47:15;;;;;;;17.00;10.03;;;7.20;59.50;;;;;;5034528;28;20477;-60
2023/01/26 05:49:42;;;;;;;18.40;10.20;;;7.20;59.70;;;;;;5032391;28;20197;-61
2023/01/26 05:52:16;;;;;;;17.20;10.87;;;7.40;61.80;;;;;;5036234;28;20189;-60
2023/01/26 05:54:41;;;;;;;20.87;11.27;;;7.80;62.40;;;;;;5034298;28;20456;-59
2023/01/26 05:57:07;;;;;;;16.80;9.50;;;8.10;62.30;;;;;;5035141;28;20498;-60
2023/01/26 05:59:33;;;;;;;17.27;10.43;;;8.30;60.80;;;;;;5031795;28;20192;-60
2023/01/26 06:01:59;;;;;;;18.53;10.13;;;8.50;60.90;;;;;;5033273;28;20900;-59
2023/01/26 06:04:25;;;;;;;13.17;9.23;;;8.70;59.80;;;;;;5035530;28;20212;-60
2023/01/26 06:06:57;;;;;;;15.73;9.97;;;8.90;59.10;;;;;;5031753;28;20935;-60
2023/01/26 06:09:22;;;;;;;14.93;9.30;;;9.10;58.70;;;;;;5031196;28;20193;-60
2023/01/26 06:11:48;;;;;;;16.37;10.70;;;9.30;58.20;;;;;;5034016;28;20446;-60
2023/01/26 06:14:14;;;;;;;17.43;11.03;;;9.40;57.20;;;;;;5034762;28;20428;-60
2023/01/26 06:16:39;;;;;;;15.60;9.60;;;9.40;55.80;;;;;;5026294;28;20289;-60
2023/01/26 06:19:06;;;;;;;15.60;9.53;;;9.50;55.60;;;;;;5025635;28;20204;-60
2023/01/26 06:21:32;;;;;;;15.20;10.10;;;9.50;55.40;;;;;;5025218;28;20691;-60
2023/01/26 06:23:58;;;;;;;17.90;9.50;;;9.50;54.70;;;;;;5024784;28;20452;-60
2023/01/26 06:26:24;;;;;;;15.47;10.47;;;9.50;54.20;;;;;;5027278;28;20446;-60
2023/01/26 06:28:51;;;;;;;16.00;10.77;;;9.40;54.50;;;;;;5032949;28;20794;-60
2023/01/26 06:31:18;;;;;;;12.40;9.93;;;9.40;54.30;;;;;;5027896;28;20842;-60
2023/01/26 06:33:44;;;;;;;16.57;12.60;;;9.30;54.40;;;;;;5036117;28;20450;-59
2023/01/26 06:36:11;;;;;;;15.07;10.20;;;9.30;54.60;;;;;;5030184;28;20487;-59
2023/01/26 06:38:38;;;;;;;14.77;9.63;;;9.30;54.50;;;;;;5032331;28;20197;-59
2023/01/26 06:41:08;;;;;;;15.63;10.90;;;9.40;55.50;;;;;;5029849;28;20474;-60
2023/01/26 06:43:34;;;;;;;14.17;9.50;;;9.40;54.20;;;;;;5031482;28;20538;-61
2023/01/26 06:46:01;;;;;;;15.77;10.97;;;9.40;53.80;;;;;;5029491;28;20530;-60
2023/01/26 06:48:29;;;;;;;17.73;10.97;;;9.40;54.40;;;;;;5030259;28;20486;-60
2023/01/26 06:51:14;;;;;;;15.67;11.27;;;9.40;54.80;;;;;;5029841;28;20841;-60
2023/01/26 06:53:43;;;;;;;16.30;9.93;;;9.40;54.10;;;;;;5030364;28;20502;-60
2023/01/26 06:56:08;;;;;;;16.40;11.70;;;9.30;53.60;;;;;;5026415;28;20967;-61
2023/01/26 06:58:34;;;;;;;15.90;10.83;;;9.10;53.50;;;;;;5022559;28;20479;-60
2023/01/26 07:01:00;;;;;;;18.83;11.90;;;9.00;53.60;;;;;;5028990;28;20205;-58
2023/01/26 07:03:25;;;;;;;17.90;11.00;;;8.80;53.90;;;;;;5026127;28;20229;-59
2023/01/26 07:05:51;;;;;;;16.27;12.27;;;8.60;54.40;;;;;;5028331;28;20232;-59
2023/01/26 07:08:17;;;;;;;14.57;10.10;;;8.50;54.90;;;;;;5030480;28;20197;-60
2023/01/26 07:10:42;;;;;;;14.57;10.23;;;8.40;55.30;;;;;;5032985;28;20320;-59
2023/01/26 07:13:08;;;;;;;18.20;11.30;;;8.30;55.40;;;;;;5030200;28;20200;-59
2023/01/26 07:15:34;;;;;;;19.27;11.80;;;8.30;55.70;;;;;;5026742;28;20680;-59
2023/01/26 07:18:00;;;;;;;21.67;12.23;;;8.10;55.60;;;;;;5033115;28;20976;-59
2023/01/26 07:20:26;;;;;;;19.53;11.87;;;8.10;55.90;;;;;;5032853;28;20190;-59
2023/01/26 07:22:52;;;;;;;17.93;10.10;;;8.00;55.90;;;;;;5032678;28;20435;-59
2023/01/26 07:25:18;;;;;;;18.90;11.10;;;8.00;56.00;;;;;;5032855;28;20911;-59
2023/01/26 07:27:43;;;;;;;21.70;12.00;;;7.90;56.30;;;;;;5032800;28;20196;-60
2023/01/26 07:30:13;;;;;;;19.57;12.17;;;7.80;56.50;;;;;;5032623;28;20535;-59
2023/01/26 07:32:38;;;;;;;15.73;10.90;;;7.80;56.60;;;;;;5031092;28;20967;-59
2023/01/26 07:35:05;;;;;;;17.53;11.50;;;7.80;56.70;;;;;;5032363;28;20423;-59
2023/01/26 07:37:30;;;;;;;18.73;12.00;;;7.70;56.80;;;;;;5032661;28;20438;-60
2023/01/26 07:39:56;;;;;;;18.03;12.40;;;7.70;56.90;;;;;;5032521;28;20416;-59
2023/01/26 07:42:22;;;;;;;25.47;15.63;;;7.70;57.00;;;;;;5032320;28;20189;-59
2023/01/26 07:44:47;;;;;;;22.70;12.50;;;7.60;57.10;;;;;;5032326;28;20193;-59
2023/01/26 07:47:14;;;;;;;21.47;11.77;;;7.60;57.40;;;;;;5032319;28;20417;-59
2023/01/26 07:49:40;;;;;;;20.53;13.10;;;7.70;57.60;;;;;;5031463;28;20195;-60
2023/01/26 07:52:07;;;;;;;19.30;11.67;;;7.60;57.50;;;;;;5031999;28;20486;-59
2023/01/26 07:54:33;;;;;;;18.97;12.20;;;7.60;57.50;;;;;;5032130;28;20428;-59
2023/01/26 07:56:59;;;;;;;19.67;12.23;;;7.60;57.70;;;;;;5031579;28;20823;-59
2023/01/26 07:59:24;;;;;;;16.40;10.43;;;7.70;57.60;;;;;;5031062;28;20201;-59
2023/01/26 08:01:51;;;;;;;21.07;11.83;;;7.70;57.50;;;;;;5031518;28;21068;-59
2023/01/26 08:04:16;;;;;;;27.20;13.90;;;7.70;57.50;;;;;;5032151;28;20217;-59
2023/01/26 08:06:42;;;;;;;23.00;14.20;;;7.70;57.40;;;;;;5032007;28;20464;-59
2023/01/26 08:09:07;;;;;;;19.47;12.73;;;7.60;57.20;;;;;;5031949;28;20268;-59
2023/01/26 08:11:33;;;;;;;20.20;12.97;;;7.60;57.50;;;;;;5031512;28;20202;-59
2023/01/26 08:13:59;;;;;;;22.10;11.63;;;7.50;57.30;;;;;;5023590;28;20190;-59
2023/01/26 08:16:25;;;;;;;21.50;12.47;;;7.40;57.70;;;;;;5031713;28;20949;-59
2023/01/26 08:18:50;;;;;;;16.70;11.13;;;7.40;57.90;;;;;;5031634;28;20276;-59
2023/01/26 08:21:17;;;;;;;21.93;12.60;;;7.50;57.90;;;;;;5031551;28;20570;-59
2023/01/26 08:23:47;;;;;;;22.87;12.67;;;7.50;57.80;;;;;;5030973;28;20527;-59
2023/01/26 08:26:13;;;;;;;18.70;12.20;;;7.40;57.80;;;;;;5031204;28;20419;-59
2023/01/26 08:28:39;;;;;;;19.93;13.00;;;7.50;57.80;;;;;;5031552;28;20770;-59
2023/01/26 08:31:07;;;;;;;30.40;12.67;;;7.50;57.60;;;;;;5031157;28;20316;-59
2023/01/26 08:33:33;;;;;;;20.70;13.57;;;7.60;57.60;;;;;;5031393;28;20512;-59
2023/01/26 08:36:04;;;;;;;24.77;15.97;;;7.60;57.40;;;;;;5031528;28;20483;-59
2023/01/26 08:38:33;;;;;;;24.87;15.37;;;7.60;57.50;;;;;;5031221;28;20455;-59
2023/01/26 08:41:00;;;;;;;19.40;12.30;;;7.60;57.60;;;;;;5030935;28;20776;-59
2023/01/26 08:43:26;;;;;;;27.90;11.53;;;7.60;57.50;;;;;;5031366;28;20478;-59
2023/01/26 08:45:52;;;;;;;19.93;11.47;;;7.60;57.30;;;;;;5031368;28;20832;-59
2023/01/26 08:48:17;;;;;;;18.53;11.03;;;7.60;57.30;;;;;;5031197;28;20467;-59
2023/01/26 08:50:43;;;;;;;17.87;10.37;;;7.60;57.40;;;;;;5029612;28;20264;-60
2023/01/26 08:53:09;;;;;;;20.30;12.10;;;7.50;57.10;;;;;;5030934;28;20205;-59
2023/01/26 08:55:35;;;;;;;20.97;12.93;;;7.50;57.20;;;;;;5031062;28;20471;-62
2023/01/26 08:58:01;;;;;;;15.70;10.67;;;7.50;57.10;;;;;;5031112;28;20201;-59
2023/01/26 09:00:27;;;;;;;16.83;9.97;;;7.60;57.10;;;;;;5030779;28;20448;-59
2023/01/26 09:03:00;;;;;;;19.13;11.03;;;7.60;57.20;;;;;;5030633;28;20193;-59
2023/01/26 09:05:26;;;;;;;15.73;9.33;;;7.50;57.30;;;;;;5031005;28;20433;-59
2023/01/26 09:07:52;;;;;;;16.00;9.87;;;7.50;57.20;;;;;;5030849;28;20440;-58
2023/01/26 09:10:17;;;;;;;16.10;10.07;;;7.50;57.00;;;;;;5031010;28;20949;-59
2023/01/26 09:12:43;;;;;;;15.03;10.37;;;7.50;56.80;;;;;;5030387;28;20200;-59
2023/01/26 09:15:09;;;;;;;14.67;8.80;;;7.50;56.80;;;;;;5022414;28;20954;-59
2023/01/26 09:17:36;;;;;;;12.40;8.30;;;7.60;56.70;;;;;;5029040;28;20201;-59
2023/01/26 09:20:02;;;;;;;12.77;7.43;;;7.60;56.60;;;;;;5030887;28;20432;-59
2023/01/26 09:22:28;;;;;;;11.77;7.80;;;7.50;56.20;;;;;;5030306;28;20462;-59
2023/01/26 09:24:54;;;;;;;11.50;7.33;;;7.50;55.80;;;;;;5030567;28;20428;-59
2023/01/26 09:27:19;;;;;;;9.97;6.97;;;7.50;55.70;;;;;;5030787;28;20482;-59
2023/01/26 09:29:45;;;;;;;12.50;6.87;;;7.50;55.60;;;;;;5030934;28;20225;-58
2023/01/26 09:32:10;;;;;;;13.63;9.47;;;7.60;55.50;;;;;;5030294;28;20606;-59
2023/01/26 09:34:36;;;;;;;16.77;8.53;;;7.50;55.40;;;;;;5030789;28;20185;-59
2023/01/26 09:37:01;;;;;;;13.50;8.70;;;7.50;55.90;;;;;;5030427;28;20217;-59
2023/01/26 09:39:27;;;;;;;12.50;8.63;;;7.50;56.20;;;;;;5030463;28;20193;-59
2023/01/26 09:41:59;;;;;;;9.00;5.83;;;7.50;56.30;;;;;;5030197;28;20643;-59
2023/01/26 09:44:28;;;;;;;11.40;6.40;;;7.50;56.20;;;;;;5029042;28;20660;-59
2023/01/26 09:47:16;;;;;;;6.60;4.80;;;7.50;55.70;;;;;;5030601;28;20519;-58
2023/01/26 09:49:42;;;;;;;8.07;5.03;;;7.40;55.30;;;;;;5029105;28;20519;-59
2023/01/26 09:52:19;;;;;;;7.10;5.17;;;7.40;54.90;;;;;;5030235;28;20526;-59
2023/01/26 09:54:50;;;;;;;8.47;5.27;;;7.50;54.70;;;;;;5030536;28;20653;-59
2023/01/26 09:57:22;;;;;;;6.73;4.90;;;7.50;54.50;;;;;;5030639;28;20479;-59
2023/01/26 10:00:03;;;;;;;9.67;6.30;;;7.60;54.50;;;;;;5030530;28;20853;-59
2023/01/26 10:02:34;;;;;;;7.73;5.13;;;7.60;54.30;;;;;;5022600;28;20787;-58
2023/01/26 10:05:06;;;;;;;6.47;4.90;;;7.70;54.30;;;;;;5030500;28;20458;-59
2023/01/26 10:07:32;;;;;;;9.13;6.13;;;7.70;54.20;;;;;;5030374;28;20531;-59
2023/01/26 10:09:58;;;;;;;12.50;7.53;;;7.70;54.10;;;;;;5030381;28;20503;-59
2023/01/26 10:12:30;;;;;;;16.27;10.07;;;7.60;54.40;;;;;;5028803;28;20193;-58
2023/01/26 10:15:05;;;;;;;13.03;8.70;;;7.60;55.00;;;;;;5025852;28;20478;-59
2023/01/26 10:17:32;;;;;;;13.00;9.00;;;7.60;55.20;;;;;;5033997;28;20502;-59
2023/01/26 10:20:27;;;;;;;13.20;9.70;;;7.70;55.10;;;;;;5034176;28;20439;-59
2023/01/26 10:23:04;;;;;;;17.83;8.73;;;7.70;55.20;;;;;;5033738;28;20805;-59
2023/01/26 10:25:38;;;;;;;15.07;10.03;;;7.80;55.30;;;;;;5033795;28;21101;-59
2023/01/26 10:28:16;;;;;;;16.90;9.87;;;7.80;55.50;;;;;;5033965;28;20514;-58
2023/01/26 10:30:43;;;;;;;13.50;8.93;;;7.70;55.70;;;;;;5033288;28;20423;-59
2023/01/26 10:33:24;;;;;;;13.20;7.80;;;7.60;55.70;;;;;;5033832;28;20462;-59
2023/01/26 10:35:49;;;;;;;13.77;9.00;;;7.70;55.70;;;;;;5033720;28;20479;-58
2023/01/26 10:38:33;;;;;;;12.33;8.70;;;7.60;55.70;;;;;;5032007;28;20439;-58
2023/01/26 10:41:04;;;;;;;14.00;8.53;;;7.50;55.30;;;;;;5033338;28;20196;-59
2023/01/26 10:43:36;;;;;;;13.13;8.60;;;7.50;55.20;;;;;;5033461;28;20443;-59
2023/01/26 10:46:05;;;;;;;15.53;9.20;;;7.60;55.30;;;;;;5033561;28;21205;-59
2023/01/26 10:48:31;;;;;;;16.77;10.07;;;7.60;55.30;;;;;;5033327;28;20435;-59
2023/01/26 10:51:14;;;;;;;12.27;8.53;;;7.60;55.50;;;;;;5033143;28;20428;-59
2023/01/26 10:53:40;;;;;;;12.30;8.60;;;7.60;55.70;;;;;;5033598;28;20982;-58
2023/01/26 10:56:15;;;;;;;12.43;7.33;;;7.50;55.60;;;;;;5033282;28;20610;-59
2023/01/26 10:58:40;;;;;;;18.77;9.23;;;7.40;55.50;;;;;;5033373;28;20544;-59
2023/01/26 11:01:11;;;;;;;12.30;8.20;;;7.40;55.60;;;;;;5032678;28;20432;-59
2023/01/26 11:03:40;;;;;;;12.33;8.70;;;7.50;55.60;;;;;;5033270;28;20201;-59
2023/01/26 11:06:14;;;;;;;11.80;7.30;;;7.50;55.50;;;;;;5031418;28;20450;-58
2023/01/26 11:08:41;;;;;;;13.80;8.47;;;7.60;55.60;;;;;;5033049;28;20436;-59
2023/01/26 11:11:24;;;;;;;13.67;8.67;;;7.60;55.40;;;;;;5032605;28;20424;-58
2023/01/26 11:14:16;;;;;;;10.30;7.47;;;7.70;55.40;;;;;;5024884;28;20442;-59
2023/01/26 11:17:04;;;;;;;15.30;8.70;;;7.70;55.20;;;;;;5023133;28;20971;-59
2023/01/26 11:19:51;;;;;;;10.40;6.77;;;7.70;55.30;;;;;;5032892;28;20428;-59
2023/01/26 11:22:40;;;;;;;12.83;7.40;;;7.70;55.30;;;;;;5032647;28;20436;-59
2023/01/26 11:25:33;;;;;;;12.97;7.63;;;7.60;55.00;;;;;;5031694;28;20431;-59
2023/01/26 11:28:20;;;;;;;10.67;6.90;;;7.50;54.80;;;;;;5032856;28;20424;-59
2023/01/26 11:31:11;;;;;;;11.33;6.70;;;7.30;55.20;;;;;;5030840;28;20538;-59
2023/01/26 11:34:09;;;;;;;10.40;6.53;;;7.30;55.10;;;;;;5029574;28;20440;-59
2023/01/26 11:36:47;;;;;;;10.60;6.90;;;7.30;55.00;;;;;;5023969;28;20762;-59
2023/01/26 11:39:27;;;;;;;11.67;7.93;;;7.30;54.90;;;;;;5032709;28;20523;-58
2023/01/26 11:42:11;;;;;;;13.13;7.57;;;7.30;55.00;;;;;;5032143;28;20447;-59
2023/01/26 11:45:02;;;;;;;11.37;7.87;;;7.30;55.40;;;;;;5032575;28;20832;-59
2023/01/26 11:47:34;;;;;;;14.23;7.63;;;7.40;55.70;;;;;;5031988;28;20448;-59
2023/01/26 11:50:30;;;;;;;11.93;7.60;;;7.40;55.80;;;;;;5032136;28;20432;-59
2023/01/26 11:53:38;;;;;;;12.40;8.03;;;7.30;55.60;;;;;;5032271;28;20773;-59
2023/01/26 11:56:14;;;;;;;13.70;8.60;;;7.20;55.80;;;;;;5032043;28;20483;-59
2023/01/26 11:58:56;;;;;;;13.57;9.13;;;7.30;55.70;;;;;;5030578;28;20442;-60
2023/01/26 12:01:28;;;;;;;15.00;9.20;;;7.30;55.60;;;;;;5031564;28;20838;-59
2023/01/26 12:03:55;;;;;;;13.83;9.00;;;7.40;55.50;;;;;;5032043;28;20432;-59
2023/01/26 12:06:39;;;;;;;14.50;9.40;;;7.40;55.40;;;;;;5031969;28;20432;-59
2023/01/26 12:09:17;;;;;;;16.67;9.17;;;7.30;55.50;;;;;;5031974;28;20416;-58
2023/01/26 12:11:56;;;;;;;14.93;10.03;;;7.30;55.40;;;;;;5031602;28;20432;-59
2023/01/26 12:14:22;;;;;;;15.10;8.80;;;7.40;55.20;;;;;;5023343;28;20493;-59
2023/01/26 12:17:06;;;;;;;12.90;8.17;;;7.40;55.20;;;;;;5031922;28;20483;-58
2023/01/26 12:19:46;;;;;;;13.20;9.20;;;7.50;55.00;;;;;;5031561;28;20204;-58
2023/01/26 12:22:19;;;;;;;12.80;8.27;;;7.50;54.90;;;;;;5031212;28;20818;-58
2023/01/26 12:24:52;;;;;;;15.93;9.60;;;7.40;54.60;;;;;;5030291;28;20424;-59
2023/01/26 12:27:40;;;;;;;15.20;9.90;;;7.40;54.90;;;;;;5031782;28;20431;-59
2023/01/26 12:30:24;;;;;;;14.83;10.00;;;7.40;55.00;;;;;;5031719;28;20920;-59
2023/01/26 12:32:51;;;;;;;17.07;10.40;;;7.40;55.10;;;;;;5031098;28;20475;-59
2023/01/26 12:35:43;;;;;;;15.43;9.83;;;7.40;55.20;;;;;;5031239;28;20430;-59
2023/01/26 12:38:27;;;;;;;15.40;11.03;;;7.50;55.20;;;;;;5031455;28;20435;-59
2023/01/26 12:41:17;;;;;;;13.00;9.33;;;7.50;55.10;;;;;;5031069;28;20416;-59
2023/01/26 12:43:58;;;;;;;16.10;8.90;;;7.50;54.70;;;;;;5031328;28;20460;-59
2023/01/26 12:46:25;;;;;;;11.77;8.57;;;7.50;54.70;;;;;;5031179;28;20428;-58
2023/01/26 12:49:22;;;;;;;19.00;10.40;;;7.50;54.70;;;;;;5030024;28;20484;-58
2023/01/26 12:51:53;;;;;;;16.10;9.70;;;7.50;54.80;;;;;;5029490;28;20959;-58
2023/01/26 12:54:47;;;;;;;17.87;8.77;;;7.50;54.90;;;;;;5031448;28;20432;-59
2023/01/26 12:57:17;;;;;;;16.00;9.40;;;7.50;55.10;;;;;;5031110;28;20515;-59
2023/01/26 12:59:43;;;;;;;16.93;11.17;;;7.50;55.10;;;;;;5031069;28;20416;-59
2023/01/26 13:02:14;;;;;;;15.27;10.03;;;7.50;54.90;;;;;;5030734;28;20535;-59
2023/01/26 13:04:42;;;;;;;16.00;8.87;;;7.40;55.00;;;;;;5031020;28;20204;-59
2023/01/26 13:07:32;;;;;;;16.87;10.40;;;7.40;54.90;;;;;;5031197;28;20795;-59
2023/01/26 13:10:19;;;;;;;14.70;10.17;;;7.40;55.10;;;;;;5031064;28;20825;-59
2023/01/26 13:13:00;;;;;;;21.80;11.33;;;7.30;55.20;;;;;;5030851;28;20787;-58
2023/01/26 13:15:31;;;;;;;15.70;11.00;;;7.40;55.40;;;;;;5024186;28;20493;-59
2023/01/26 13:18:03;;;;;;;13.87;10.53;;;7.40;55.40;;;;;;5029221;28;20428;-58
2023/01/26 13:20:41;;;;;;;15.83;10.50;;;7.40;55.30;;;;;;5030531;28;20428;-58
2023/01/26 13:23:38;;;;;;;15.53;9.50;;;7.50;55.30;;;;;;5030909;28;20475;-58
2023/01/26 13:26:14;;;;;;;16.97;10.97;;;7.40;55.20;;;;;;5030853;28;20432;-59
2023/01/26 13:28:40;;;;;;;16.90;9.77;;;7.50;55.00;;;;;;5030601;28;20497;-59
2023/01/26 13:31:07;;;;;;;16.27;10.00;;;7.50;55.00;;;;;;5030414;28;20467;-59
2023/01/26 13:33:33;;;;;;;14.53;10.33;;;7.50;54.90;;;;;;5030197;28;21008;-59
2023/01/26 13:36:04;;;;;;;16.37;11.13;;;7.50;54.70;;;;;;5030622;28;20476;-59
2023/01/26 13:38:57;;;;;;;16.93;11.27;;;7.60;54.80;;;;;;5030599;28;20429;-59
2023/01/26 13:41:22;;;;;;;17.97;11.00;;;7.70;54.70;;;;;;5030226;28;20424;-59